createdAt,value
2019-01-29T00:02:47.229Z,32.47
2019-01-29T00:07:42.926Z,30.57
2019-01-29T00:12:38.657Z,27.60
2019-01-29T00:17:34.425Z,35.53
2019-01-29T00:22:33.497Z,33.73
2019-01-29T00:27:28.030Z,32.73
2019-01-29T00:32:23.664Z,32.50
2019-01-29T00:37:19.365Z,30.13
2019-01-29T00:42:15.103Z,38.63
2019-01-29T00:47:10.864Z,31.53
2019-01-29T00:52:07.771Z,36.87
2019-01-29T00:57:03.437Z,31.77
2019-01-29T01:01:59.090Z,32.63
2019-01-29T01:06:54.789Z,31.13
2019-01-29T01:11:50.542Z,34.77
2019-01-29T01:16:46.204Z,33.90
2019-01-29T01:21:42.056Z,31.73
2019-01-29T01:26:37.756Z,33.07
2019-01-29T01:31:33.390Z,33.53
2019-01-29T01:36:29.705Z,29.50
2019-01-29T01:41:25.446Z,35.53
2019-01-29T01:46:21.215Z,35.87
2019-01-29T01:51:16.929Z,29.97
2019-01-29T01:56:12.684Z,25.13
2019-01-29T02:01:08.313Z,28.47
2019-01-29T02:06:05.147Z,27.77
2019-01-29T02:11:01.884Z,27.37
2019-01-29T02:15:57.621Z,30.73
2019-01-29T02:20:53.340Z,24.67
2019-01-29T02:25:48.976Z,23.33
2019-01-29T02:30:44.822Z,24.80
2019-01-29T02:35:40.452Z,25.30
2019-01-29T02:40:36.399Z,25.83
2019-01-29T02:45:32.067Z,25.93
2019-01-29T02:50:27.758Z,25.37
2019-01-29T02:55:23.383Z,26.00
2019-01-29T03:00:21.226Z,26.03
2019-01-29T03:05:17.421Z,24.63
2019-01-29T03:10:16.314Z,20.40
2019-01-29T03:15:15.772Z,22.57
2019-01-29T03:20:12.107Z,21.60
2019-01-29T03:25:09.945Z,22.20
2019-01-29T03:30:06.495Z,22.63
2019-01-29T03:35:02.393Z,20.33
2019-01-29T03:39:58.086Z,18.10
2019-01-29T03:44:53.854Z,19.70
2019-01-29T03:49:49.648Z,17.17
2019-01-29T03:54:45.313Z,21.40
2019-01-29T03:59:40.962Z,19.47
2019-01-29T04:04:36.689Z,17.87
2019-01-29T04:09:33.601Z,17.27
2019-01-29T04:14:29.298Z,15.40
2019-01-29T04:19:27.588Z,17.43
2019-01-29T04:24:23.430Z,17.27
2019-01-29T04:29:19.173Z,17.10
2019-01-29T04:34:15.161Z,21.93
2019-01-29T04:39:11.016Z,19.03
2019-01-29T04:44:06.907Z,17.60
2019-01-29T04:49:02.668Z,16.20
2019-01-29T04:53:58.363Z,20.07
2019-01-29T04:58:54.343Z,19.13
2019-01-29T05:03:50.392Z,18.60
2019-01-29T05:08:46.094Z,18.83
2019-01-29T05:13:41.852Z,18.40
2019-01-29T05:18:37.627Z,18.53
2019-01-29T05:23:33.327Z,15.50
2019-01-29T05:28:28.982Z,21.37
2019-01-29T05:33:24.767Z,17.33
2019-01-29T05:38:20.359Z,21.90
2019-01-29T05:43:16.030Z,16.70
2019-01-29T05:48:11.726Z,16.17
2019-01-29T05:53:07.451Z,17.00
2019-01-29T05:58:04.686Z,18.87
2019-01-29T06:03:00.324Z,20.93
2019-01-29T06:07:56.199Z,21.57
2019-01-29T06:19:11.961Z,18.07
2019-01-29T06:24:07.749Z,30.23
2019-01-29T06:29:03.460Z,33.13
2019-01-29T06:33:59.300Z,26.13
2019-01-29T06:38:55.089Z,50.47
2019-01-29T06:43:50.828Z,61.90
2019-01-29T06:48:46.617Z,26.43
2019-01-29T06:53:42.353Z,40.60
2019-01-29T06:58:38.052Z,24.87
2019-01-29T07:03:33.765Z,27.87
2019-01-29T07:08:29.921Z,24.53
2019-01-29T07:13:25.551Z,103.00
2019-01-29T07:18:52.370Z,29.27
2019-01-29T07:23:48.204Z,44.33
2019-01-29T07:28:43.881Z,63.23
2019-01-29T07:33:39.726Z,31.17
2019-01-29T07:38:35.736Z,19.37
2019-01-29T07:43:32.533Z,18.23
2019-01-29T07:48:28.303Z,18.27
2019-01-29T07:53:24.084Z,17.83
2019-01-29T07:58:19.953Z,18.37
2019-01-29T08:03:18.659Z,20.07
2019-01-29T08:08:25.164Z,20.27
2019-01-29T08:13:27.459Z,16.60
2019-01-29T08:18:23.386Z,23.20
2019-01-29T08:23:19.145Z,15.67
2019-01-29T08:28:15.057Z,17.23
2019-01-29T08:33:10.872Z,27.83
2019-01-29T08:38:06.690Z,28.50
2019-01-29T08:43:02.959Z,29.37
2019-01-29T08:47:59.809Z,36.47
2019-01-29T08:52:56.602Z,15.07
2019-01-29T08:57:52.498Z,15.43
2019-01-29T09:02:48.427Z,20.63
2019-01-29T09:07:44.159Z,13.33
2019-01-29T09:12:39.956Z,13.73
2019-01-29T09:17:35.727Z,15.60
2019-01-29T09:22:31.782Z,21.43
2019-01-29T09:27:29.017Z,20.23
2019-01-29T09:32:24.804Z,20.63
2019-01-29T09:37:20.813Z,25.77
2019-01-29T09:42:16.493Z,24.87
2019-01-29T09:47:12.141Z,21.87
2019-01-29T09:52:07.916Z,20.80
2019-01-29T09:57:03.514Z,15.57
2019-01-29T10:01:59.199Z,22.73
2019-01-29T10:06:55.013Z,20.43
2019-01-29T10:11:50.763Z,20.20
2019-01-29T10:16:46.644Z,25.07
2019-01-29T10:21:42.455Z,23.60
2019-01-29T10:26:38.220Z,29.93
2019-01-29T10:31:33.980Z,26.10
2019-01-29T10:36:29.886Z,24.03
2019-01-29T10:41:25.635Z,17.50
2019-01-29T10:46:21.494Z,20.93
2019-01-29T10:51:17.345Z,22.40
2019-01-29T10:56:13.453Z,17.23
2019-01-29T11:01:09.460Z,9.63
2019-01-29T11:06:05.559Z,9.17
2019-01-29T11:11:01.372Z,8.63
2019-01-29T11:15:58.660Z,14.90
2019-01-29T11:20:54.440Z,7.80
2019-01-29T11:25:55.772Z,4.77
2019-01-29T11:30:48.026Z,3.70
2019-01-29T11:35:45.333Z,3.83
2019-01-29T11:40:41.201Z,2.23
2019-01-29T11:45:49.365Z,2.77
2019-01-29T11:50:45.200Z,1.87
2019-01-29T11:55:42.116Z,4.17
2019-01-29T12:00:52.901Z,2.73
2019-01-29T12:05:50.043Z,3.37
2019-01-29T12:10:46.163Z,1.10
2019-01-29T12:15:44.252Z,1.93
2019-01-29T12:20:40.192Z,2.57
2019-01-29T12:25:36.321Z,4.37
2019-01-29T12:30:32.417Z,3.03
2019-01-29T12:35:28.216Z,3.87
2019-01-29T12:40:24.078Z,1.77
2019-01-29T12:45:20.345Z,3.03
2019-01-29T12:50:20.186Z,2.10
2019-01-29T12:55:16.113Z,3.77
2019-01-29T13:00:14.349Z,4.33
2019-01-29T13:05:11.758Z,5.67
2019-01-29T13:10:11.162Z,5.40
2019-01-29T13:15:09.556Z,6.13
2019-01-29T13:20:06.512Z,5.23
2019-01-29T13:25:02.838Z,6.83
2019-01-29T13:29:58.958Z,6.47
2019-01-29T13:34:54.711Z,6.57
2019-01-29T13:39:50.374Z,4.83
2019-01-29T13:44:49.687Z,6.13
2019-01-29T13:49:48.889Z,4.30
2019-01-29T13:54:45.499Z,7.97
2019-01-29T13:59:41.401Z,4.67
2019-01-29T14:04:38.170Z,4.73
2019-01-29T14:09:34.077Z,9.17
2019-01-29T14:14:32.459Z,8.83
2019-01-29T14:19:28.715Z,7.10
2019-01-29T14:24:24.523Z,6.20
2019-01-29T14:29:20.476Z,10.33
2019-01-29T14:34:16.353Z,5.20
2019-01-29T14:39:26.642Z,7.43
2019-01-29T14:44:29.818Z,7.67
2019-01-29T14:49:25.693Z,4.00
2019-01-29T14:54:21.469Z,4.80
2019-01-29T14:59:17.390Z,5.70
2019-01-29T15:04:13.206Z,7.13
2019-01-29T15:09:12.898Z,8.27
2019-01-29T15:14:12.159Z,10.60
2019-01-29T15:19:11.386Z,11.83
2019-01-29T15:24:08.904Z,10.57
2019-01-29T15:29:04.706Z,18.30
2019-01-29T15:34:00.559Z,15.87
2019-01-29T15:38:56.351Z,20.97
2019-01-29T15:43:53.463Z,25.10
2019-01-29T15:48:49.431Z,17.50
2019-01-29T15:53:45.210Z,15.67
2019-01-29T15:58:41.076Z,13.90
2019-01-29T16:03:36.857Z,13.80
2019-01-29T16:08:32.784Z,9.77
2019-01-29T16:13:28.768Z,12.73
2019-01-29T16:18:24.615Z,13.13
2019-01-29T16:23:20.398Z,14.43
2019-01-29T16:28:16.195Z,16.57
2019-01-29T16:33:11.955Z,18.20
2019-01-29T16:38:07.739Z,17.80
2019-01-29T16:43:04.057Z,15.30
2019-01-29T16:48:02.254Z,15.17
2019-01-29T16:52:59.211Z,15.90
2019-01-29T16:57:55.038Z,12.60
2019-01-29T17:02:50.810Z,18.27
2019-01-29T17:07:46.958Z,16.93
2019-01-29T17:12:42.728Z,17.20
2019-01-29T17:17:38.961Z,25.90
2019-01-29T17:22:34.839Z,37.27
2019-01-29T17:27:40.086Z,48.07
2019-01-29T17:32:32.919Z,87.73
2019-01-29T17:37:28.938Z,103.23
2019-01-29T17:42:24.767Z,30.13
2019-01-29T17:47:20.721Z,18.97
2019-01-29T17:52:16.918Z,29.93
2019-01-29T17:57:12.754Z,29.33
2019-01-29T18:02:09.230Z,29.30
2019-01-29T18:07:05.586Z,27.00
2019-01-29T18:12:01.463Z,34.77
2019-01-29T18:16:57.239Z,54.97
2019-01-29T18:21:57.059Z,48.27
2019-01-29T18:26:51.562Z,34.17
2019-01-29T18:31:47.357Z,23.33
2019-01-29T18:36:43.173Z,22.03
2019-01-29T18:41:39.561Z,41.53
2019-01-29T18:46:35.388Z,43.07
2019-01-29T18:51:31.191Z,73.40
2019-01-29T18:56:27.123Z,67.10
2019-01-29T19:01:23.017Z,61.67
2019-01-29T19:06:18.791Z,50.47
2019-01-29T19:11:16.035Z,51.50
2019-01-29T19:16:12.547Z,36.93
2019-01-29T19:21:08.327Z,38.63
2019-01-29T19:26:05.811Z,43.60
2019-01-29T19:31:01.716Z,51.80
2019-01-29T19:35:57.510Z,53.67
2019-01-29T19:40:53.447Z,53.40
2019-01-29T19:45:49.302Z,51.47
2019-01-29T19:50:45.353Z,52.00
2019-01-29T19:55:42.218Z,51.83
2019-01-29T20:00:40.766Z,55.70
2019-01-29T20:05:36.660Z,97.47
2019-01-29T20:10:35.102Z,55.53
2019-01-29T20:15:30.919Z,59.90
2019-01-29T20:20:33.862Z,85.80
2019-01-29T20:25:30.748Z,68.53
2019-01-29T20:30:28.495Z,54.80
2019-01-29T20:35:24.550Z,46.90
2019-01-29T20:40:20.778Z,48.77
2019-01-29T20:45:17.720Z,49.60
2019-01-29T20:50:16.931Z,52.77
2019-01-29T20:55:13.033Z,36.00
2019-01-29T21:00:16.360Z,48.40
2019-01-29T21:05:13.075Z,42.53
2019-01-29T21:10:11.254Z,26.53
2019-01-29T21:15:10.035Z,32.93
2019-01-29T21:20:07.112Z,31.23
2019-01-29T21:25:03.926Z,31.90
2019-01-29T21:29:59.736Z,41.47
2019-01-29T21:34:55.517Z,45.03
2019-01-29T21:39:54.102Z,47.10
2019-01-29T21:44:51.339Z,38.33
2019-01-29T21:49:48.977Z,30.17
2019-01-29T21:54:45.885Z,35.93
2019-01-29T21:59:43.226Z,35.07
2019-01-29T22:04:40.091Z,30.23
2019-01-29T22:09:35.924Z,33.73
2019-01-29T22:14:32.675Z,36.70
2019-01-29T22:19:30.706Z,33.10
2019-01-29T22:24:25.848Z,46.47
2019-01-29T22:29:23.471Z,38.83
2019-01-29T22:34:22.136Z,35.53
2019-01-29T22:39:17.949Z,43.77
2019-01-29T22:44:13.732Z,40.93
2019-01-29T22:49:09.473Z,47.90
2019-01-29T22:54:05.289Z,41.77
2019-01-29T22:59:01.103Z,34.03
2019-01-29T23:04:06.850Z,34.73
2019-01-29T23:09:03.442Z,32.30
2019-01-29T23:14:00.338Z,30.50
2019-01-29T23:18:56.147Z,30.20
2019-01-29T23:23:51.944Z,38.73
2019-01-29T23:28:47.713Z,36.40
2019-01-29T23:33:43.480Z,46.57
2019-01-29T23:38:39.317Z,48.83
2019-01-29T23:43:35.338Z,40.37
2019-01-29T23:48:31.175Z,39.30
2019-01-29T23:53:27.093Z,35.80
2019-01-29T23:58:22.996Z,40.67
